Torbat-Heydarieh, Iran
Current Conditions -  °F | °C
As of 12:30 PM on Sunday 23 Nov 2014 (Local Time) from OIMM Reporting Station
Few Clouds Few Clouds  
Wind Chill: 66°   Ceiling: Unl
Heat Index: 66°   Visibility: 6mi
Dew Point: 30°   Wind: 9mph
Humidity: 26%   Direction: 320°NW
Pressure: 29.83"   Gusts: NA
Location:  35.27°N, 59.22°E
Report Text: OIMM 230930Z 32008KT 9999 FEW040 19/M01 Q1010 A2984
Loading
Personal Weather Stations






























Interactive Weather Map New forecast layout! Learn more

10-Day Weather Forecast

Advertisements
Track Severe Weather on mobile